Time;durP1;ratioP1;P1;durP2;ratioP2;P2;SDS_P1;SDS_P2;PMS_P1;PMS_P2;Temp;Humidity;BMP_temperature;BMP_pressure;BME280_temperature;BME280_humidity;BME280_pressure;Samples;Min_cycle;Max_cycle;Signal;HPM_P1;HPM_P2
2022/06/26 00:00:22;;;;;;;0.43;0.43;;;25.60;69.00;;;;;;4197157;28;20136;-65
2022/06/26 00:02:45;;;;;;;0.13;0.13;;;25.60;69.00;;;;;;4197201;28;20053;-65
2022/06/26 00:05:08;;;;;;;0.00;0.00;;;25.60;69.00;;;;;;4197185;28;20473;-65
2022/06/26 00:07:30;;;;;;;0.10;0.10;;;25.60;69.10;;;;;;4197174;28;20761;-65
2022/06/26 00:09:52;;;;;;;0.13;0.13;;;25.60;69.10;;;;;;4196972;28;20059;-64
2022/06/26 00:12:14;;;;;;;0.08;0.08;;;25.60;69.90;;;;;;4197151;28;20125;-65
2022/06/26 00:14:36;;;;;;;0.00;0.00;;;25.60;69.00;;;;;;4197053;28;20055;-65
2022/06/26 00:16:59;;;;;;;0.30;0.30;;;25.60;69.90;;;;;;4196795;28;20139;-65
2022/06/26 00:19:22;;;;;;;0.00;0.00;;;25.50;69.00;;;;;;4196581;28;20052;-65
2022/06/26 00:21:44;;;;;;;0.15;0.15;;;25.60;69.10;;;;;;4196890;28;20633;-65
2022/06/26 00:24:07;;;;;;;2.80;1.90;;;25.60;69.00;;;;;;4196930;28;20519;-65
2022/06/26 00:26:28;;;;;;;2.28;0.70;;;25.50;69.00;;;;;;4195893;28;20049;-65
2022/06/26 00:28:52;;;;;;;0.05;0.05;;;25.60;69.10;;;;;;4196810;28;20058;-66
2022/06/26 00:31:14;;;;;;;0.00;0.00;;;25.50;69.10;;;;;;4196823;28;20064;-65
2022/06/26 00:33:36;;;;;;;0.00;0.00;;;25.50;69.10;;;;;;4181709;28;20049;-65
2022/06/26 00:36:00;;;;;;;0.82;0.65;;;25.50;69.10;;;;;;4196968;28;20052;-65
2022/06/26 00:38:22;;;;;;;0.20;0.20;;;25.50;70.00;;;;;;4196798;28;20102;-65
2022/06/26 00:40:44;;;;;;;0.05;0.05;;;25.50;69.10;;;;;;4195916;28;20060;-65
2022/06/26 00:43:07;;;;;;;0.00;0.00;;;25.50;69.20;;;;;;4196797;28;20079;-65
2022/06/26 00:45:29;;;;;;;0.57;0.52;;;25.50;69.20;;;;;;4196820;28;20057;-65
2022/06/26 00:47:51;;;;;;;0.00;0.00;;;25.50;69.20;;;;;;4195574;28;20420;-65
2022/06/26 00:50:13;;;;;;;0.40;0.40;;;25.50;69.40;;;;;;4195696;28;20141;-65
2022/06/26 00:52:38;;;;;;;0.32;0.32;;;25.40;69.30;;;;;;4196716;28;20055;-65
2022/06/26 00:54:59;;;;;;;0.10;0.10;;;25.40;69.30;;;;;;4195506;28;20076;-65
2022/06/26 00:57:22;;;;;;;0.03;0.03;;;25.40;69.40;;;;;;4196310;28;20106;-66
2022/06/26 00:59:45;;;;;;;1.27;1.05;;;25.40;69.40;;;;;;4194439;28;20053;-65
2022/06/26 01:02:07;;;;;;;0.28;0.28;;;25.40;69.50;;;;;;4196742;28;20056;-65
2022/06/26 01:04:29;;;;;;;0.20;0.20;;;25.40;69.50;;;;;;4196705;28;20074;-66
2022/06/26 01:06:52;;;;;;;0.05;0.05;;;25.40;69.50;;;;;;4196486;28;20056;-66
2022/06/26 01:09:15;;;;;;;1.85;0.93;;;25.40;69.50;;;;;;4196954;28;20063;-66
2022/06/26 01:11:39;;;;;;;0.00;0.00;;;25.40;69.50;;;;;;4181167;28;20053;-65
2022/06/26 01:14:01;;;;;;;0.22;0.22;;;25.40;69.50;;;;;;4196688;28;20064;-65
2022/06/26 01:16:24;;;;;;;0.00;0.00;;;25.40;69.40;;;;;;4195607;28;20055;-66
2022/06/26 01:18:50;;;;;;;0.08;0.08;;;25.30;69.30;;;;;;4195542;28;20597;-65
2022/06/26 01:21:14;;;;;;;0.22;0.22;;;25.30;69.40;;;;;;4195971;28;20059;-65
2022/06/26 01:23:42;;;;;;;0.10;0.10;;;25.30;69.40;;;;;;4196490;28;20049;-65
2022/06/26 01:26:04;;;;;;;0.25;0.25;;;25.30;69.50;;;;;;4196538;28;20084;-65
2022/06/26 01:28:26;;;;;;;0.25;0.25;;;25.30;69.50;;;;;;4196440;28;20067;-65
2022/06/26 01:30:48;;;;;;;0.03;0.03;;;25.30;69.50;;;;;;4199252;28;20131;-65
2022/06/26 01:33:11;;;;;;;0.20;0.20;;;25.30;69.60;;;;;;4198492;28;20056;-65
2022/06/26 01:35:32;;;;;;;0.13;0.13;;;25.30;69.50;;;;;;4199525;28;20147;-65
2022/06/26 01:38:12;;;;;;;0.28;0.28;;;25.30;69.50;;;;;;4198030;28;20056;-65
2022/06/26 01:40:35;;;;;;;0.35;0.35;;;25.30;69.50;;;;;;4198504;28;20862;-66
2022/06/26 01:42:57;;;;;;;0.52;0.52;;;25.30;69.60;;;;;;4198374;28;20074;-66
2022/06/26 01:45:19;;;;;;;0.10;0.10;;;25.30;69.60;;;;;;4198187;28;20060;-66
2022/06/26 01:47:42;;;;;;;0.38;0.38;;;25.30;69.60;;;;;;4197510;28;20115;-66
2022/06/26 01:50:04;;;;;;;0.68;0.68;;;25.30;69.60;;;;;;4198792;28;20530;-66
2022/06/26 01:52:26;;;;;;;0.32;0.32;;;25.30;69.60;;;;;;4183460;28;20515;-66
2022/06/26 01:54:49;;;;;;;0.00;0.00;;;25.30;69.60;;;;;;4198100;28;20063;-66
2022/06/26 01:57:13;;;;;;;0.35;0.35;;;25.20;69.50;;;;;;4197614;28;20075;-66
2022/06/26 01:59:37;;;;;;;0.10;0.10;;;25.20;69.60;;;;;;4183574;28;20118;-66
2022/06/26 02:02:04;;;;;;;0.47;0.47;;;25.20;69.60;;;;;;4197797;28;20082;-66
2022/06/26 02:04:26;;;;;;;0.20;0.20;;;25.20;69.70;;;;;;4198721;28;20056;-66
2022/06/26 02:06:49;;;;;;;1.45;0.65;;;25.20;69.80;;;;;;4198651;28;20063;-66
2022/06/26 02:14:33;;;;;;;0.00;0.00;;;25.20;69.90;;;;;;4164392;28;20088;-65
2022/06/26 02:16:56;;;;;;;0.00;0.00;;;25.20;69.90;;;;;;4192873;28;20087;-66
2022/06/26 02:19:20;;;;;;;0.38;0.38;;;25.20;70.00;;;;;;4169116;28;20092;-66
2022/06/26 02:21:42;;;;;;;0.28;0.28;;;25.20;70.00;;;;;;4198765;28;20088;-66
2022/06/26 02:24:04;;;;;;;0.00;0.00;;;25.20;70.00;;;;;;4197675;28;20143;-66
2022/06/26 02:26:27;;;;;;;0.80;0.60;;;25.20;70.00;;;;;;4197485;28;20442;-67
2022/06/26 02:28:52;;;;;;;0.00;0.00;;;25.20;70.00;;;;;;4197571;28;20450;-67
2022/06/26 02:31:15;;;;;;;1.45;0.90;;;25.20;70.10;;;;;;4198204;28;20407;-67
2022/06/26 02:33:38;;;;;;;0.77;0.35;;;25.20;70.10;;;;;;4183487;28;20445;-67
2022/06/26 02:36:00;;;;;;;0.32;0.32;;;25.20;71.00;;;;;;4197587;28;20064;-67
2022/06/26 02:38:22;;;;;;;0.30;0.30;;;25.20;70.10;;;;;;4197518;28;20056;-66
2022/06/26 02:40:45;;;;;;;0.00;0.00;;;25.10;70.00;;;;;;4198455;28;20060;-67
2022/06/26 02:43:08;;;;;;;0.00;0.00;;;25.10;70.00;;;;;;4197035;28;20063;-66
2022/06/26 02:45:31;;;;;;;0.82;0.82;;;25.20;70.10;;;;;;4197504;28;20519;-66
2022/06/26 02:47:55;;;;;;;0.15;0.15;;;25.10;70.00;;;;;;4197426;28;20059;-66
2022/06/26 02:50:18;;;;;;;0.50;0.50;;;25.20;70.10;;;;;;4197274;28;20101;-65
2022/06/26 02:52:40;;;;;;;0.10;0.10;;;25.10;70.00;;;;;;4197328;28;20079;-65
2022/06/26 02:55:03;;;;;;;0.05;0.05;;;25.10;70.10;;;;;;4182828;28;20060;-65
2022/06/26 02:57:25;;;;;;;0.30;0.30;;;25.10;71.00;;;;;;4197265;28;20403;-65
2022/06/26 02:59:49;;;;;;;0.15;0.15;;;25.10;70.10;;;;;;4196997;28;20079;-66
2022/06/26 03:02:11;;;;;;;0.00;0.00;;;25.10;70.10;;;;;;4183079;28;20512;-66
2022/06/26 03:04:39;;;;;;;0.00;0.00;;;25.10;70.20;;;;;;4198120;28;20059;-67
2022/06/26 03:07:01;;;;;;;0.00;0.00;;;25.10;70.10;;;;;;4196713;28;20052;-67
2022/06/26 03:09:23;;;;;;;0.00;0.00;;;25.10;70.10;;;;;;4198139;28;20479;-67
2022/06/26 03:11:45;;;;;;;0.10;0.10;;;25.10;70.20;;;;;;4198212;28;20064;-67
2022/06/26 03:14:07;;;;;;;0.10;0.10;;;25.10;70.20;;;;;;4197718;28;20143;-67
2022/06/26 03:16:30;;;;;;;0.00;0.00;;;25.10;70.30;;;;;;4196765;28;20060;-66
2022/06/26 03:18:53;;;;;;;0.15;0.15;;;25.10;70.30;;;;;;4196603;28;20084;-66
2022/06/26 03:21:17;;;;;;;0.50;0.50;;;25.10;70.30;;;;;;4197928;28;20056;-66
2022/06/26 03:26:19;;;;;;;1.85;1.27;;;25.10;70.30;;;;;;4196245;28;20052;-66
2022/06/26 03:28:42;;;;;;;0.20;0.20;;;25.10;70.30;;;;;;4163066;28;20390;-66
2022/06/26 03:31:05;;;;;;;0.32;0.32;;;25.00;70.30;;;;;;4163716;28;20057;-66
2022/06/26 03:33:27;;;;;;;4.13;2.60;;;25.00;70.30;;;;;;4163653;28;20080;-66
2022/06/26 03:35:48;;;;;;;0.00;0.00;;;25.00;70.30;;;;;;4180862;28;20051;-67
2022/06/26 03:38:11;;;;;;;0.32;0.15;;;25.00;71.20;;;;;;4197714;28;20059;-66
2022/06/26 03:40:39;;;;;;;0.00;0.00;;;25.00;70.30;;;;;;4196534;28;20533;-66
2022/06/26 03:43:01;;;;;;;0.40;0.40;;;25.10;70.50;;;;;;4196014;28;20129;-67
2022/06/26 03:45:37;;;;;;;0.00;0.00;;;25.00;70.40;;;;;;4182374;28;20080;-67
2022/06/26 03:48:00;;;;;;;0.20;0.20;;;25.00;70.30;;;;;;4196334;28;20082;-67
2022/06/26 03:50:22;;;;;;;0.20;0.20;;;25.00;70.40;;;;;;4196171;28;20094;-66
2022/06/26 03:52:44;;;;;;;1.83;1.70;;;25.00;70.40;;;;;;4196531;28;20064;-67
2022/06/26 03:55:08;;;;;;;0.08;0.08;;;25.00;70.40;;;;;;4196291;28;20062;-66
2022/06/26 03:57:32;;;;;;;0.00;0.00;;;25.00;70.40;;;;;;4196077;28;20459;-66
2022/06/26 03:59:54;;;;;;;0.00;0.00;;;25.00;70.50;;;;;;4196311;28;20110;-67
2022/06/26 04:02:25;;;;;;;0.00;0.00;;;25.00;70.40;;;;;;4196998;28;20127;-66
2022/06/26 04:04:47;;;;;;;1.45;0.73;;;25.00;70.40;;;;;;4197271;28;20055;-66
2022/06/26 04:07:12;;;;;;;1.55;1.25;;;25.00;70.40;;;;;;4196126;28;20146;-66
2022/06/26 04:09:36;;;;;;;0.00;0.00;;;25.00;70.50;;;;;;4196103;28;20512;-66
2022/06/26 04:12:00;;;;;;;0.00;0.00;;;25.00;71.40;;;;;;4195763;28;20052;-66
2022/06/26 04:14:27;;;;;;;0.03;0.03;;;25.00;70.50;;;;;;4195944;28;20052;-66
2022/06/26 04:16:49;;;;;;;0.30;0.30;;;25.00;70.50;;;;;;4196118;28;20481;-67
2022/06/26 04:19:13;;;;;;;0.00;0.00;;;25.00;70.90;;;;;;4196053;28;20045;-67
2022/06/26 04:21:36;;;;;;;0.00;0.00;;;25.00;70.50;;;;;;4195604;28;20048;-66
2022/06/26 04:24:02;;;;;;;0.10;0.10;;;25.00;70.50;;;;;;4196143;28;20439;-67
2022/06/26 04:26:24;;;;;;;0.00;0.00;;;25.00;70.50;;;;;;4196936;28;20831;-66
2022/06/26 04:28:49;;;;;;;0.47;0.47;;;25.00;70.60;;;;;;4195302;28;20063;-66
2022/06/26 04:31:12;;;;;;;0.43;0.43;;;25.00;70.60;;;;;;4195362;28;20328;-65
2022/06/26 04:33:35;;;;;;;0.00;0.00;;;25.00;70.60;;;;;;4195146;28;20105;-65
2022/06/26 04:36:01;;;;;;;0.00;0.00;;;25.00;70.60;;;;;;4195736;28;20517;-67
2022/06/26 04:38:24;;;;;;;0.10;0.10;;;25.00;70.80;;;;;;4195451;28;20537;-66
2022/06/26 04:40:47;;;;;;;0.00;0.00;;;25.00;71.20;;;;;;4196549;28;20063;-66
2022/06/26 04:43:09;;;;;;;0.00;0.00;;;25.00;71.10;;;;;;4195303;28;20130;-66
2022/06/26 04:45:39;;;;;;;0.20;0.20;;;25.00;70.90;;;;;;4189268;28;20063;-66
2022/06/26 04:48:02;;;;;;;0.00;0.00;;;25.00;70.90;;;;;;4195919;28;20511;-66
2022/06/26 04:50:25;;;;;;;0.00;0.00;;;25.00;70.90;;;;;;4195640;28;20457;-66
2022/06/26 04:52:50;;;;;;;0.00;0.00;;;25.00;71.00;;;;;;4195736;28;20063;-66
2022/06/26 04:55:13;;;;;;;0.15;0.15;;;24.90;71.00;;;;;;4195433;28;20092;-66
2022/06/26 04:57:37;;;;;;;0.10;0.10;;;24.90;71.00;;;;;;4194045;28;20056;-66
2022/06/26 05:00:00;;;;;;;0.35;0.35;;;24.90;71.10;;;;;;4195817;28;20118;-66
2022/06/26 05:02:24;;;;;;;0.08;0.08;;;24.90;71.10;;;;;;4195552;28;20079;-66
2022/06/26 05:04:56;;;;;;;7.03;2.05;;;24.90;71.10;;;;;;4197238;28;20131;-66
2022/06/26 05:07:31;;;;;;;0.00;0.00;;;24.90;71.10;;;;;;4198768;28;20373;-66
2022/06/26 05:09:53;;;;;;;0.00;0.00;;;24.90;71.10;;;;;;4198897;28;20056;-66
2022/06/26 05:12:15;;;;;;;0.00;0.00;;;24.90;71.10;;;;;;4198336;28;20087;-66
2022/06/26 05:14:55;;;;;;;0.00;0.00;;;24.90;71.10;;;;;;4199937;28;20060;-66
2022/06/26 05:17:29;;;;;;;0.00;0.00;;;24.90;71.20;;;;;;4198806;28;20198;-67
2022/06/26 05:19:51;;;;;;;2.67;0.43;;;24.90;71.20;;;;;;4198144;28;20079;-67
2022/06/26 05:22:15;;;;;;;0.00;0.00;;;24.90;71.20;;;;;;4198762;28;20637;-67
2022/06/26 05:24:38;;;;;;;2.28;0.43;;;24.90;71.20;;;;;;4198723;28;20113;-67
2022/06/26 05:27:00;;;;;;;0.00;0.00;;;24.90;71.20;;;;;;4198704;28;20131;-67
2022/06/26 05:29:24;;;;;;;0.00;0.00;;;24.80;71.10;;;;;;4198426;28;20414;-67
2022/06/26 05:31:49;;;;;;;0.00;0.00;;;24.80;71.20;;;;;;4198278;28;20053;-67
2022/06/26 05:34:13;;;;;;;0.00;0.00;;;24.80;71.10;;;;;;4198577;28;20072;-67
2022/06/26 05:36:37;;;;;;;0.00;0.00;;;24.90;71.20;;;;;;4198396;28;20497;-66
2022/06/26 05:39:00;;;;;;;0.00;0.00;;;24.80;71.10;;;;;;4198312;28;20083;-66
2022/06/26 05:41:25;;;;;;;0.00;0.00;;;24.90;72.00;;;;;;4198363;28;20052;-66
2022/06/26 05:43:47;;;;;;;0.00;0.00;;;24.80;71.10;;;;;;4198203;28;20202;-66
2022/06/26 05:46:09;;;;;;;0.03;0.03;;;24.80;71.10;;;;;;4198478;28;20060;-66
2022/06/26 05:48:56;;;;;;;0.00;0.00;;;24.90;71.10;;;;;;4198186;28;20071;-66
2022/06/26 05:51:22;;;;;;;0.00;0.00;;;24.90;71.10;;;;;;4199338;28;20142;-67
2022/06/26 05:54:16;;;;;;;0.00;0.00;;;24.80;71.00;;;;;;4197936;28;20912;-66
2022/06/26 05:57:01;;;;;;;0.00;0.00;;;24.80;71.10;;;;;;4198551;28;20048;-66
2022/06/26 05:59:42;;;;;;;0.00;0.00;;;24.80;71.10;;;;;;4198958;28;20048;-66
2022/06/26 06:02:19;;;;;;;0.00;0.00;;;24.80;71.10;;;;;;4184118;28;20064;-66
2022/06/26 06:04:42;;;;;;;0.00;0.00;;;24.80;71.10;;;;;;4197922;28;20060;-66
2022/06/26 06:07:07;;;;;;;0.30;0.30;;;24.80;72.00;;;;;;4197820;28;20495;-66
2022/06/26 06:09:29;;;;;;;0.00;0.00;;;24.80;71.10;;;;;;4197034;28;20082;-66
2022/06/26 06:11:51;;;;;;;0.20;0.20;;;24.80;71.10;;;;;;4197763;28;20522;-66
2022/06/26 06:14:15;;;;;;;0.03;0.03;;;24.80;71.20;;;;;;4197554;28;20542;-68
2022/06/26 06:16:37;;;;;;;0.00;0.00;;;24.80;71.10;;;;;;4197441;28;20830;-68
2022/06/26 06:18:59;;;;;;;0.00;0.00;;;24.80;71.50;;;;;;4197900;28;20064;-68
2022/06/26 06:21:24;;;;;;;0.10;0.10;;;24.80;72.50;;;;;;4182941;28;20581;-68
2022/06/26 06:23:47;;;;;;;0.00;0.00;;;24.90;75.50;;;;;;4197499;28;20516;-68
2022/06/26 06:26:10;;;;;;;0.03;0.03;;;24.90;75.10;;;;;;4197184;28;20060;-69
2022/06/26 06:28:32;;;;;;;0.08;0.08;;;24.90;74.20;;;;;;4198115;28;20071;-69
2022/06/26 06:30:54;;;;;;;0.20;0.20;;;24.90;74.10;;;;;;4180574;28;20045;-69
2022/06/26 06:33:19;;;;;;;0.00;0.00;;;24.90;73.50;;;;;;4179296;28;20052;-69
2022/06/26 06:35:41;;;;;;;0.63;0.63;;;25.00;72.60;;;;;;4172385;28;20416;-69
2022/06/26 06:38:05;;;;;;;0.93;0.85;;;25.00;71.90;;;;;;4194156;28;20052;-68
2022/06/26 06:40:29;;;;;;;0.00;0.00;;;25.00;71.60;;;;;;4190336;28;20550;-69
2022/06/26 06:42:54;;;;;;;0.00;0.00;;;25.00;72.30;;;;;;4196416;28;20143;-70
2022/06/26 06:45:20;;;;;;;0.40;0.40;;;25.00;71.30;;;;;;4194275;28;20056;-69
2022/06/26 06:47:48;;;;;;;0.55;0.55;;;25.00;71.20;;;;;;4183990;28;20518;-69
2022/06/26 06:50:39;;;;;;;0.00;0.00;;;25.00;72.00;;;;;;4181356;28;20068;-69
2022/06/26 06:53:03;;;;;;;2.30;0.82;;;25.00;71.00;;;;;;4164174;28;20049;-69
2022/06/26 06:55:25;;;;;;;2.20;1.25;;;25.00;70.90;;;;;;4163996;28;20088;-69
2022/06/26 06:57:51;;;;;;;0.43;0.43;;;25.00;70.80;;;;;;4164221;28;20123;-69
2022/06/26 07:00:13;;;;;;;0.20;0.20;;;25.00;70.60;;;;;;4196573;28;20056;-70
2022/06/26 07:02:38;;;;;;;0.10;0.10;;;25.00;70.50;;;;;;4182919;28;20060;-71
2022/06/26 07:05:00;;;;;;;0.63;0.63;;;25.00;70.40;;;;;;4184590;28;20420;-70
2022/06/26 07:07:23;;;;;;;0.00;0.00;;;25.00;70.30;;;;;;4180555;28;20056;-69
2022/06/26 07:09:45;;;;;;;0.00;0.00;;;25.00;70.20;;;;;;4191493;28;20052;-68
2022/06/26 07:12:08;;;;;;;0.68;0.68;;;25.00;70.10;;;;;;4196454;28;20125;-65
2022/06/26 07:14:31;;;;;;;0.85;0.82;;;25.00;70.10;;;;;;4197539;28;20477;-66
2022/06/26 07:16:53;;;;;;;0.00;0.00;;;25.00;70.20;;;;;;4196923;28;20415;-67
2022/06/26 07:19:16;;;;;;;0.00;0.00;;;25.00;70.50;;;;;;4196787;28;20137;-62
2022/06/26 07:21:38;;;;;;;0.03;0.03;;;25.00;70.70;;;;;;4196523;28;20146;-68
2022/06/26 07:24:00;;;;;;;1.30;1.20;;;25.00;71.00;;;;;;4196816;28;20430;-68
2022/06/26 07:26:43;;;;;;;0.95;0.95;;;25.00;70.80;;;;;;4195989;28;20064;-63
2022/06/26 07:29:05;;;;;;;0.28;0.28;;;25.00;70.80;;;;;;4197648;28;20415;-69
2022/06/26 07:31:36;;;;;;;0.20;0.20;;;25.00;71.90;;;;;;4196602;28;20122;-69
2022/06/26 07:34:16;;;;;;;0.00;0.00;;;25.00;70.60;;;;;;4196263;28;20753;-68
2022/06/26 07:36:38;;;;;;;0.00;0.00;;;25.00;71.10;;;;;;4196421;28;20427;-68
2022/06/26 07:39:01;;;;;;;0.28;0.28;;;25.00;70.00;;;;;;4196561;28;20052;-68
2022/06/26 07:41:24;;;;;;;0.80;0.80;;;25.00;69.70;;;;;;4196441;28;20106;-67
2022/06/26 07:43:54;;;;;;;0.75;0.68;;;25.00;70.40;;;;;;4195082;28;20053;-67
2022/06/26 07:46:16;;;;;;;0.70;0.70;;;25.00;69.30;;;;;;4195779;28;20121;-68
2022/06/26 07:48:43;;;;;;;0.00;0.00;;;25.00;70.40;;;;;;4196123;28;20514;-67
2022/06/26 07:51:06;;;;;;;1.75;1.40;;;25.00;70.30;;;;;;4196335;28;20060;-65
2022/06/26 07:53:29;;;;;;;0.10;0.10;;;25.00;71.10;;;;;;4197474;28;20053;-69
2022/06/26 07:55:51;;;;;;;0.10;0.10;;;25.00;72.70;;;;;;4197090;28;20056;-67
2022/06/26 07:58:13;;;;;;;4.93;0.88;;;25.00;72.40;;;;;;4197405;28;20055;-66
2022/06/26 08:00:35;;;;;;;0.40;0.40;;;25.10;71.70;;;;;;4197252;28;20052;-67
2022/06/26 08:03:04;;;;;;;0.00;0.00;;;25.10;71.00;;;;;;4180553;28;20051;-67
2022/06/26 08:05:28;;;;;;;0.00;0.00;;;25.10;70.60;;;;;;4177582;28;20131;-67
2022/06/26 08:07:50;;;;;;;0.35;0.35;;;25.00;70.30;;;;;;4172599;28;20480;-67
2022/06/26 08:10:12;;;;;;;0.00;0.00;;;25.00;70.10;;;;;;4195730;28;20427;-67
2022/06/26 08:12:34;;;;;;;0.10;0.10;;;25.00;70.00;;;;;;4163833;28;20056;-67
2022/06/26 08:14:56;;;;;;;0.30;0.30;;;25.00;70.10;;;;;;4164154;28;20068;-67
2022/06/26 08:17:18;;;;;;;0.00;0.00;;;25.00;70.10;;;;;;4163787;28;20057;-67
2022/06/26 08:19:40;;;;;;;0.45;0.45;;;25.00;70.10;;;;;;4183524;28;20061;-67
2022/06/26 08:22:04;;;;;;;0.30;0.30;;;24.90;69.90;;;;;;4182562;28;20081;-67
2022/06/26 08:24:26;;;;;;;0.43;0.10;;;25.00;69.90;;;;;;4180244;28;20094;-68
2022/06/26 08:26:49;;;;;;;0.10;0.10;;;24.90;69.80;;;;;;4178863;28;20597;-67
2022/06/26 08:29:11;;;;;;;0.77;0.70;;;25.00;69.70;;;;;;4180101;28;20059;-67
2022/06/26 08:31:33;;;;;;;0.60;0.60;;;25.00;69.70;;;;;;4179811;28;20106;-67
2022/06/26 08:33:55;;;;;;;0.20;0.20;;;25.00;69.80;;;;;;4193373;28;20117;-67
2022/06/26 08:36:17;;;;;;;0.20;0.20;;;25.10;69.70;;;;;;4193128;28;20487;-67
2022/06/26 08:38:40;;;;;;;0.30;0.30;;;25.10;69.50;;;;;;4179759;28;20068;-67
2022/06/26 08:41:03;;;;;;;0.77;0.77;;;25.10;68.70;;;;;;4207832;28;20044;-66
2022/06/26 08:43:26;;;;;;;0.65;0.65;;;25.10;69.00;;;;;;4188327;28;20117;-67
2022/06/26 08:45:54;;;;;;;0.20;0.20;;;25.20;68.70;;;;;;4163798;28;20092;-67
2022/06/26 08:48:19;;;;;;;0.00;0.00;;;25.20;68.40;;;;;;4163365;28;20054;-67
2022/06/26 08:50:44;;;;;;;0.00;0.00;;;25.30;68.10;;;;;;4163542;28;20103;-67
2022/06/26 08:53:07;;;;;;;0.00;0.00;;;25.30;67.80;;;;;;4163471;28;20064;-67
2022/06/26 08:55:30;;;;;;;0.65;0.43;;;25.30;67.30;;;;;;4195169;28;20060;-67
2022/06/26 08:57:52;;;;;;;0.10;0.10;;;25.30;66.90;;;;;;4195552;28;20059;-67
2022/06/26 09:00:15;;;;;;;0.20;0.20;;;25.30;66.30;;;;;;4196562;28;20515;-67
2022/06/26 09:02:37;;;;;;;0.28;0.28;;;25.40;66.00;;;;;;4196699;28;20045;-67
2022/06/26 09:04:59;;;;;;;0.20;0.20;;;25.40;65.70;;;;;;4163400;28;20164;-67
2022/06/26 09:07:22;;;;;;;0.55;0.55;;;25.50;65.50;;;;;;4190605;28;20770;-67
2022/06/26 09:09:44;;;;;;;0.32;0.32;;;25.50;65.10;;;;;;4193680;28;20059;-67
2022/06/26 09:12:08;;;;;;;0.05;0.05;;;25.50;64.90;;;;;;4160141;28;20550;-68
2022/06/26 09:14:31;;;;;;;0.75;0.75;;;25.50;64.80;;;;;;4178473;28;20055;-67
2022/06/26 09:16:54;;;;;;;0.00;0.00;;;25.50;64.70;;;;;;4188071;28;20044;-67
2022/06/26 09:19:19;;;;;;;0.20;0.20;;;25.50;64.70;;;;;;4191087;28;20522;-67
2022/06/26 09:21:41;;;;;;;0.00;0.00;;;25.50;64.60;;;;;;4191579;28;20056;-66
2022/06/26 09:24:04;;;;;;;0.00;0.00;;;25.50;64.50;;;;;;4179489;28;20065;-67
2022/06/26 09:26:26;;;;;;;0.52;0.52;;;25.50;64.20;;;;;;4191004;28;20079;-67
2022/06/26 09:28:50;;;;;;;1.02;0.98;;;25.50;64.80;;;;;;4190686;28;20056;-67
2022/06/26 09:31:13;;;;;;;0.30;0.30;;;25.50;63.80;;;;;;4190584;28;20049;-64
2022/06/26 09:33:36;;;;;;;0.10;0.10;;;25.50;63.60;;;;;;4190369;28;20155;-65
2022/06/26 09:35:59;;;;;;;0.00;0.00;;;25.60;63.40;;;;;;4191105;28;20472;-64
2022/06/26 09:38:23;;;;;;;0.00;0.00;;;25.60;64.10;;;;;;4177501;28;20103;-65
2022/06/26 09:40:50;;;;;;;0.03;0.03;;;25.60;63.10;;;;;;4174823;28;20502;-65
2022/06/26 09:43:15;;;;;;;0.00;0.00;;;25.60;63.00;;;;;;4175215;28;20575;-65
2022/06/26 09:45:41;;;;;;;0.00;0.00;;;25.60;62.90;;;;;;4158464;28;20056;-65
2022/06/26 09:48:04;;;;;;;0.10;0.10;;;25.60;62.70;;;;;;4158148;28;20413;-66
2022/06/26 09:50:26;;;;;;;0.43;0.43;;;25.70;62.60;;;;;;4157516;28;20049;-66
2022/06/26 09:52:49;;;;;;;0.30;0.30;;;25.70;62.10;;;;;;4161564;28;20392;-65
2022/06/26 09:55:12;;;;;;;0.00;0.00;;;25.70;62.00;;;;;;4159515;28;20113;-65
2022/06/26 09:57:36;;;;;;;0.00;0.00;;;25.80;61.80;;;;;;4160680;28;20092;-65
2022/06/26 09:59:59;;;;;;;0.00;0.00;;;25.80;61.60;;;;;;4161079;28;20519;-65
2022/06/26 10:07:48;;;;;;;0.68;0.68;;;25.80;60.90;;;;;;4177739;28;20563;-65
2022/06/26 10:10:10;;;;;;;0.52;0.45;;;25.80;60.80;;;;;;4180187;28;20056;-65
2022/06/26 10:12:34;;;;;;;0.00;0.00;;;25.90;60.90;;;;;;4194788;28;20364;-65
2022/06/26 10:14:56;;;;;;;0.00;0.00;;;25.80;60.80;;;;;;4194105;28;20052;-65
2022/06/26 10:17:34;;;;;;;0.60;0.60;;;25.90;61.20;;;;;;4193781;28;20078;-65
2022/06/26 10:19:59;;;;;;;0.22;0.22;;;25.90;61.40;;;;;;4193476;28;20056;-65
2022/06/26 10:22:21;;;;;;;0.10;0.10;;;25.90;61.20;;;;;;4194021;28;20205;-65
2022/06/26 10:24:55;;;;;;;0.10;0.10;;;25.90;60.90;;;;;;4193598;28;20506;-65
2022/06/26 10:27:17;;;;;;;0.13;0.13;;;25.80;60.90;;;;;;4193659;28;20056;-65
2022/06/26 10:29:40;;;;;;;0.00;0.00;;;25.80;61.00;;;;;;4193525;28;20066;-65
2022/06/26 10:32:03;;;;;;;0.00;0.00;;;25.80;61.00;;;;;;4192402;28;20056;-65
2022/06/26 10:34:27;;;;;;;0.57;0.57;;;25.80;61.10;;;;;;4192816;28;20059;-65
2022/06/26 10:37:00;;;;;;;0.00;0.00;;;25.80;61.80;;;;;;4193461;28;20068;-65
2022/06/26 10:39:23;;;;;;;0.65;0.60;;;25.80;60.90;;;;;;4194169;28;20048;-65
2022/06/26 10:44:33;;;;;;;0.00;0.00;;;25.90;60.70;;;;;;4191974;28;20064;-65
2022/06/26 10:46:58;;;;;;;0.22;0.22;;;25.90;60.60;;;;;;4189986;28;20068;-65
2022/06/26 10:49:21;;;;;;;0.00;0.00;;;25.90;60.40;;;;;;4192708;28;20052;-65
2022/06/26 10:51:46;;;;;;;0.32;0.32;;;26.00;60.50;;;;;;4192178;28;20123;-64
2022/06/26 10:54:19;;;;;;;0.00;0.00;;;26.00;60.20;;;;;;4192171;28;20055;-64
2022/06/26 10:56:41;;;;;;;0.73;0.73;;;26.00;60.00;;;;;;4194632;28;20372;-65
2022/06/26 10:59:03;;;;;;;0.00;0.00;;;25.90;60.00;;;;;;4194351;28;20517;-64
2022/06/26 11:01:27;;;;;;;0.00;0.00;;;25.90;60.10;;;;;;4193066;28;20071;-65
2022/06/26 11:03:49;;;;;;;0.00;0.00;;;26.00;60.20;;;;;;4187559;28;20491;-65
2022/06/26 11:06:12;;;;;;;0.15;0.15;;;26.00;60.00;;;;;;4176058;28;20056;-65
2022/06/26 11:08:38;;;;;;;0.10;0.10;;;26.00;59.70;;;;;;4176559;28;20056;-65
2022/06/26 11:11:03;;;;;;;0.00;0.00;;;26.00;59.70;;;;;;4184363;28;20114;-64
2022/06/26 11:13:25;;;;;;;0.20;0.20;;;26.00;59.60;;;;;;4193153;28;20488;-64
2022/06/26 11:15:47;;;;;;;0.00;0.00;;;26.00;59.50;;;;;;4192615;28;20450;-65
2022/06/26 11:18:09;;;;;;;0.00;0.00;;;25.90;59.40;;;;;;4193330;28;20349;-65
2022/06/26 11:20:47;;;;;;;1.10;0.80;;;26.00;59.50;;;;;;4192697;28;20359;-65
2022/06/26 11:23:18;;;;;;;0.00;0.00;;;26.00;59.30;;;;;;4192912;28;20063;-64
2022/06/26 11:25:42;;;;;;;0.00;0.00;;;26.00;59.20;;;;;;4192841;28;20040;-65
2022/06/26 11:28:08;;;;;;;0.20;0.20;;;26.00;59.00;;;;;;4182593;28;20058;-65
2022/06/26 11:30:30;;;;;;;0.00;0.00;;;26.00;59.00;;;;;;4176053;28;20455;-65
2022/06/26 11:32:52;;;;;;;0.10;0.10;;;26.00;58.90;;;;;;4176121;28;20558;-65
2022/06/26 11:35:25;;;;;;;0.10;0.10;;;26.00;58.80;;;;;;4176166;28;20488;-65
2022/06/26 11:37:47;;;;;;;0.10;0.10;;;26.00;58.70;;;;;;4175996;28;20071;-65
2022/06/26 11:40:13;;;;;;;0.00;0.00;;;26.00;58.40;;;;;;4175860;28;20053;-65
2022/06/26 11:42:37;;;;;;;0.10;0.10;;;26.00;58.30;;;;;;4176201;28;20104;-65
2022/06/26 11:45:00;;;;;;;0.00;0.00;;;26.00;58.60;;;;;;4179540;28;20137;-65
2022/06/26 11:47:23;;;;;;;0.00;0.00;;;26.00;59.30;;;;;;4192677;28;20117;-65
2022/06/26 11:49:45;;;;;;;0.00;0.00;;;26.10;58.50;;;;;;4192219;28;20127;-65
2022/06/26 11:52:08;;;;;;;0.00;0.00;;;26.10;58.20;;;;;;4192687;28;20495;-64
2022/06/26 11:54:30;;;;;;;0.10;0.10;;;26.10;58.30;;;;;;4190791;28;20040;-64
2022/06/26 11:56:52;;;;;;;0.00;0.00;;;26.10;58.30;;;;;;4192657;28;20482;-64
2022/06/26 11:59:16;;;;;;;0.00;0.00;;;26.10;58.30;;;;;;4191207;28;20056;-65
2022/06/26 12:01:38;;;;;;;0.10;0.10;;;26.20;58.60;;;;;;4192161;28;20037;-65
2022/06/26 12:04:00;;;;;;;0.00;0.00;;;26.20;58.70;;;;;;4192468;28;20048;-65
2022/06/26 12:06:33;;;;;;;0.00;0.00;;;26.20;58.70;;;;;;4192027;28;20553;-70
2022/06/26 12:09:00;;;;;;;0.00;0.00;;;26.20;58.50;;;;;;4192271;28;20061;-66
2022/06/26 12:11:22;;;;;;;0.00;0.00;;;26.20;58.70;;;;;;4191881;28;20044;-66
2022/06/26 12:13:44;;;;;;;0.00;0.00;;;26.20;58.90;;;;;;4191329;28;20052;-67
2022/06/26 12:16:09;;;;;;;0.00;0.00;;;26.20;58.90;;;;;;4191913;28;20143;-67
2022/06/26 12:18:31;;;;;;;0.08;0.08;;;26.20;58.90;;;;;;4192052;28;20056;-66
2022/06/26 12:20:53;;;;;;;1.15;0.47;;;26.30;59.70;;;;;;4192262;28;20044;-67
2022/06/26 12:23:16;;;;;;;0.00;0.00;;;26.30;59.00;;;;;;4191912;28;20140;-66
2022/06/26 12:25:40;;;;;;;0.00;0.00;;;26.30;58.90;;;;;;4192118;28;20479;-67
2022/06/26 12:28:03;;;;;;;0.10;0.10;;;26.30;58.90;;;;;;4191926;28;20056;-67
2022/06/26 12:30:28;;;;;;;0.00;0.00;;;26.30;58.80;;;;;;4192020;28;20127;-67
2022/06/26 12:32:52;;;;;;;0.00;0.00;;;26.30;58.80;;;;;;4192040;28;20125;-68
2022/06/26 12:35:15;;;;;;;0.00;0.00;;;26.40;58.80;;;;;;4191170;28;20094;-67
2022/06/26 12:37:37;;;;;;;0.00;0.00;;;26.40;58.70;;;;;;4191944;28;20056;-68
2022/06/26 12:40:00;;;;;;;0.00;0.00;;;26.40;58.70;;;;;;4190751;28;20154;-68
2022/06/26 12:42:22;;;;;;;0.20;0.20;;;26.40;58.70;;;;;;4191786;28;20044;-68
2022/06/26 12:44:44;;;;;;;0.00;0.00;;;26.40;58.60;;;;;;4191996;28;20510;-67
2022/06/26 12:47:06;;;;;;;0.00;0.00;;;26.40;58.60;;;;;;4191820;28;20086;-67